createdAt,value
2023-04-16T00:00:57.096Z,80.56
2023-04-16T00:03:33.710Z,80.65
2023-04-16T00:06:02.182Z,80.57
2023-04-16T00:08:30.530Z,80.69
2023-04-16T00:10:58.781Z,80.67
2023-04-16T00:13:27.989Z,80.59
2023-04-16T00:15:56.243Z,80.60
2023-04-16T00:18:24.683Z,80.59
2023-04-16T00:20:53.648Z,80.66
2023-04-16T00:23:21.953Z,80.58
2023-04-16T00:25:50.329Z,80.74
2023-04-16T00:28:18.606Z,80.69
2023-04-16T00:30:46.890Z,80.72
2023-04-16T00:33:15.992Z,80.81
2023-04-16T00:35:48.290Z,80.75
2023-04-16T00:38:16.772Z,80.74
2023-04-16T00:40:45.088Z,80.65
2023-04-16T00:43:22.377Z,80.70
2023-04-16T00:45:51.025Z,80.73
2023-04-16T00:48:20.807Z,80.74
2023-04-16T00:50:49.423Z,80.60
2023-04-16T00:53:17.890Z,80.64
2023-04-16T00:55:46.301Z,80.67
2023-04-16T00:58:15.289Z,80.73
2023-04-16T01:00:43.588Z,80.68
2023-04-16T01:03:11.934Z,80.62
2023-04-16T01:05:40.966Z,80.61
2023-04-16T01:08:20.598Z,80.63
2023-04-16T01:10:48.839Z,80.59
2023-04-16T01:13:17.097Z,80.60
2023-04-16T01:15:45.538Z,80.68
2023-04-16T01:18:18.206Z,80.61
2023-04-16T01:20:47.535Z,80.63
2023-04-16T01:23:16.561Z,80.76
2023-04-16T01:25:46.044Z,80.66
2023-04-16T01:28:14.625Z,80.75
2023-04-16T01:30:42.867Z,80.74
2023-04-16T01:33:12.600Z,80.83
2023-04-16T01:35:41.382Z,80.84
2023-04-16T01:38:10.480Z,80.86
2023-04-16T01:40:38.869Z,80.70
2023-04-16T01:43:07.166Z,80.70
2023-04-16T01:45:35.754Z,80.75
2023-04-16T01:48:04.441Z,80.78
2023-04-16T01:50:33.526Z,80.61
2023-04-16T01:53:05.199Z,80.58
2023-04-16T01:55:34.595Z,80.55
2023-04-16T01:58:02.820Z,80.69
2023-04-16T02:00:31.251Z,80.73
2023-04-16T02:03:00.059Z,80.64
2023-04-16T02:05:28.651Z,80.68
2023-04-16T02:07:56.870Z,80.74
2023-04-16T02:10:25.120Z,80.65
2023-04-16T02:12:53.364Z,80.68
2023-04-16T02:15:21.632Z,80.62
2023-04-16T02:17:54.106Z,80.73
2023-04-16T02:20:22.501Z,80.65
2023-04-16T02:22:50.836Z,80.56
2023-04-16T02:25:19.019Z,80.54
2023-04-16T02:27:47.199Z,80.60
2023-04-16T02:30:15.554Z,80.65
2023-04-16T02:32:43.812Z,80.55
2023-04-16T02:35:12.184Z,80.50
2023-04-16T02:37:41.122Z,80.51
2023-04-16T02:40:10.075Z,80.42
2023-04-16T02:42:38.339Z,80.57
2023-04-16T02:45:07.230Z,80.40
2023-04-16T02:47:35.403Z,80.67
2023-04-16T02:50:04.007Z,80.57
2023-04-16T02:52:33.084Z,80.60
2023-04-16T02:55:01.975Z,80.70
2023-04-16T02:57:30.402Z,80.76
2023-04-16T02:59:58.750Z,80.65
2023-04-16T03:02:27.657Z,80.64
2023-04-16T03:04:56.120Z,80.70
2023-04-16T03:07:24.750Z,80.83
2023-04-16T03:09:53.349Z,80.83
2023-04-16T03:12:21.568Z,80.71
2023-04-16T03:14:52.126Z,80.77
2023-04-16T03:17:20.462Z,80.69
2023-04-16T03:19:50.916Z,80.70
2023-04-16T03:22:19.250Z,80.59
2023-04-16T03:24:47.533Z,80.62
2023-04-16T03:27:15.699Z,80.43
2023-04-16T03:29:43.964Z,80.44
2023-04-16T03:32:12.899Z,80.33
2023-04-16T03:34:41.384Z,80.40
2023-04-16T03:37:12.150Z,80.56
2023-04-16T03:39:40.682Z,80.55
2023-04-16T03:42:09.001Z,80.53
2023-04-16T03:44:37.330Z,80.55
2023-04-16T03:47:05.644Z,80.46
2023-04-16T03:49:33.815Z,80.52
2023-04-16T03:52:02.101Z,80.28
2023-04-16T03:54:30.557Z,80.45
2023-04-16T03:56:58.844Z,80.43
2023-04-16T03:59:27.098Z,80.46
2023-04-16T04:01:55.509Z,80.38
2023-04-16T04:04:23.917Z,80.29
2023-04-16T04:06:52.207Z,80.40
2023-04-16T04:09:20.606Z,80.16
2023-04-16T04:11:49.450Z,80.36
2023-04-16T04:14:17.726Z,80.35
2023-04-16T04:16:46.140Z,80.39
2023-04-16T04:19:14.536Z,80.51
2023-04-16T04:21:42.711Z,80.72
2023-04-16T04:24:11.007Z,80.80
2023-04-16T04:26:39.223Z,80.81
2023-04-16T04:29:07.547Z,80.89
2023-04-16T04:31:36.092Z,80.98
2023-04-16T04:34:04.480Z,81.05
2023-04-16T04:36:32.658Z,81.01
2023-04-16T04:39:01.279Z,80.96
2023-04-16T04:41:29.618Z,81.01
2023-04-16T04:43:57.812Z,81.14
2023-04-16T04:46:26.071Z,81.02
2023-04-16T04:48:54.333Z,81.23
2023-04-16T04:51:22.683Z,80.98
2023-04-16T04:53:50.879Z,81.20
2023-04-16T04:56:19.216Z,81.41
2023-04-16T04:58:47.449Z,81.29
2023-04-16T05:01:15.796Z,81.51
2023-04-16T05:03:45.118Z,81.41
2023-04-16T05:06:13.426Z,81.34
2023-04-16T05:08:41.574Z,81.37
2023-04-16T05:11:09.946Z,81.35
2023-04-16T05:13:38.277Z,81.39
2023-04-16T05:16:07.012Z,81.26
2023-04-16T05:18:35.228Z,81.30
2023-04-16T05:21:04.008Z,81.17
2023-04-16T05:23:32.192Z,80.88
2023-04-16T05:26:00.512Z,80.85
2023-04-16T05:28:28.734Z,80.86
2023-04-16T05:30:57.006Z,80.98
2023-04-16T05:33:25.454Z,80.80
2023-04-16T05:35:53.645Z,80.67
2023-04-16T05:38:21.880Z,80.76
2023-04-16T05:40:50.840Z,80.76
2023-04-16T05:43:18.997Z,80.73
2023-04-16T05:45:47.174Z,80.68
2023-04-16T05:48:15.501Z,80.53
2023-04-16T05:50:43.841Z,80.51
2023-04-16T05:53:14.225Z,80.53
2023-04-16T05:55:42.604Z,80.35
2023-04-16T05:58:10.896Z,80.31
2023-04-16T06:00:39.565Z,80.08
2023-04-16T06:03:07.950Z,80.06
2023-04-16T06:05:36.530Z,80.18
2023-04-16T06:08:04.794Z,80.01
2023-04-16T06:10:33.084Z,79.94
2023-04-16T06:13:01.325Z,79.96
2023-04-16T06:15:29.701Z,79.95
2023-04-16T06:18:00.779Z,79.91
2023-04-16T06:20:29.343Z,79.86
2023-04-16T06:22:57.978Z,79.88
2023-04-16T06:25:26.183Z,79.84
2023-04-16T06:27:54.360Z,79.71
2023-04-16T06:30:22.716Z,79.66
2023-04-16T06:32:51.229Z,79.51
2023-04-16T06:35:20.425Z,79.54
2023-04-16T06:37:48.935Z,79.57
2023-04-16T06:40:17.160Z,79.76
2023-04-16T06:42:45.759Z,79.62
2023-04-16T06:45:14.221Z,79.63
2023-04-16T06:47:42.532Z,79.84
2023-04-16T06:50:11.230Z,79.89
2023-04-16T06:52:39.781Z,80.01
2023-04-16T06:55:10.046Z,80.05
2023-04-16T06:57:38.470Z,79.98
2023-04-16T07:00:07.400Z,80.08
2023-04-16T07:02:36.048Z,80.00
2023-04-16T07:05:04.823Z,79.82
2023-04-16T07:07:33.213Z,79.76
2023-04-16T07:10:01.586Z,79.64
2023-04-16T07:12:29.801Z,79.56
2023-04-16T07:14:58.154Z,79.67
2023-04-16T07:17:26.436Z,79.74
2023-04-16T07:19:54.639Z,79.70
2023-04-16T07:22:22.960Z,79.53
2023-04-16T07:24:51.154Z,79.46
2023-04-16T07:27:19.957Z,79.49
2023-04-16T07:29:50.446Z,79.57
2023-04-16T07:32:18.914Z,79.73
2023-04-16T07:34:47.396Z,79.56
2023-04-16T07:37:15.678Z,79.82
2023-04-16T07:39:43.898Z,79.72
2023-04-16T07:42:12.091Z,79.96
2023-04-16T07:44:40.587Z,80.15
2023-04-16T07:47:09.144Z,80.24
2023-04-16T07:49:37.479Z,80.35
2023-04-16T07:52:06.219Z,80.15
2023-04-16T07:54:34.475Z,80.16
2023-04-16T07:57:02.915Z,80.26
2023-04-16T07:59:31.403Z,80.25
2023-04-16T08:01:59.744Z,79.98
2023-04-16T08:04:28.397Z,79.67
2023-04-16T08:06:57.065Z,79.91
2023-04-16T08:09:28.631Z,79.90
2023-04-16T08:11:57.081Z,79.89
2023-04-16T08:14:25.323Z,79.94
2023-04-16T08:16:53.652Z,80.09
2023-04-16T08:19:21.944Z,80.23
2023-04-16T08:21:50.224Z,80.15
2023-04-16T08:24:18.526Z,80.04
2023-04-16T08:26:46.868Z,79.88
2023-04-16T08:29:15.216Z,79.91
2023-04-16T08:31:43.934Z,79.53
2023-04-16T08:34:12.588Z,79.58
2023-04-16T08:36:41.298Z,79.68
2023-04-16T08:39:10.091Z,79.73
2023-04-16T08:41:43.160Z,79.94
2023-04-16T08:44:23.865Z,80.11
2023-04-16T08:47:02.967Z,80.23
2023-04-16T08:49:38.977Z,80.37
2023-04-16T08:52:13.803Z,80.43
2023-04-16T08:54:58.567Z,80.63
2023-04-16T08:57:31.051Z,80.67
2023-04-16T09:00:01.243Z,80.82
2023-04-16T09:02:31.639Z,80.63
2023-04-16T09:09:34.666Z,80.78
2023-04-16T09:12:08.057Z,80.87
2023-04-16T09:18:06.335Z,81.01
2023-04-16T09:20:35.024Z,81.03
2023-04-16T09:23:03.424Z,80.92
2023-04-16T09:25:35.476Z,81.21
2023-04-16T09:28:03.934Z,81.15
2023-04-16T09:30:40.965Z,80.85
2023-04-16T09:33:23.276Z,81.13
2023-04-16T09:35:53.419Z,81.11
2023-04-16T09:38:22.731Z,80.82
2023-04-16T09:41:19.112Z,80.90
2023-04-16T09:43:58.587Z,80.92
2023-04-16T09:46:36.634Z,80.60
2023-04-16T09:49:14.959Z,80.80
2023-04-16T09:51:47.292Z,80.99
2023-04-16T09:54:16.916Z,80.59
2023-04-16T09:56:47.071Z,78.89
2023-04-16T09:59:23.208Z,78.47
2023-04-16T10:01:53.695Z,78.95
2023-04-16T10:04:27.867Z,78.74
2023-04-16T10:07:06.781Z,78.46
2023-04-16T10:09:38.720Z,78.83
2023-04-16T10:12:07.825Z,78.97
2023-04-16T10:14:36.229Z,79.07
2023-04-16T10:17:06.355Z,79.23
2023-04-16T10:19:35.618Z,79.06
2023-04-16T10:22:04.516Z,78.98
2023-04-16T10:24:50.740Z,78.79
2023-04-16T10:27:20.708Z,78.74
2023-04-16T10:29:50.337Z,78.99
2023-04-16T10:32:22.918Z,79.10
2023-04-16T10:34:51.482Z,79.29
2023-04-16T10:41:06.684Z,79.39
2023-04-16T10:43:41.463Z,79.33
2023-04-16T10:46:18.890Z,79.80
2023-04-16T10:48:50.182Z,79.58
2023-04-16T10:51:29.601Z,79.86
2023-04-16T10:54:03.192Z,79.64
2023-04-16T10:56:35.885Z,78.99
2023-04-16T10:59:10.532Z,79.09
2023-04-16T11:01:46.868Z,79.01
2023-04-16T11:04:21.910Z,78.31
2023-04-16T11:07:03.404Z,78.30
2023-04-16T11:09:50.538Z,78.92
2023-04-16T11:12:38.605Z,79.09
2023-04-16T11:15:08.533Z,79.09
2023-04-16T11:17:38.404Z,79.06
2023-04-16T11:20:18.987Z,78.39
2023-04-16T11:22:49.794Z,78.78
2023-04-16T11:25:26.435Z,78.57
2023-04-16T11:27:55.009Z,78.29
2023-04-16T11:30:31.860Z,78.11
2023-04-16T11:33:03.424Z,78.63
2023-04-16T11:35:32.512Z,78.86
2023-04-16T11:38:00.899Z,78.86
2023-04-16T11:40:33.015Z,78.92
2023-04-16T11:43:15.535Z,78.39
2023-04-16T11:46:26.824Z,77.90
2023-04-16T11:48:56.337Z,77.89
2023-04-16T11:51:24.840Z,78.10
2023-04-16T11:53:54.595Z,77.94
2023-04-16T11:56:30.964Z,76.63
2023-04-16T11:59:19.232Z,76.45
2023-04-16T12:01:51.573Z,76.14
2023-04-16T12:04:22.571Z,75.98
2023-04-16T12:07:10.055Z,75.16
2023-04-16T12:09:41.082Z,75.63
2023-04-16T12:12:31.697Z,75.77
2023-04-16T12:15:04.544Z,76.63
2023-04-16T12:17:36.149Z,76.18
2023-04-16T12:20:10.737Z,76.61
2023-04-16T12:22:41.231Z,76.71
2023-04-16T12:25:16.092Z,76.23
2023-04-16T12:27:50.721Z,75.83
2023-04-16T12:30:26.505Z,75.28
2023-04-16T12:33:17.744Z,74.71
2023-04-16T12:35:46.584Z,74.79
2023-04-16T12:38:15.884Z,75.05
2023-04-16T12:40:45.877Z,75.47
2023-04-16T12:43:14.648Z,74.49
2023-04-16T12:45:43.952Z,74.26
2023-04-16T12:48:12.573Z,74.09
2023-04-16T12:50:44.739Z,74.25
2023-04-16T12:53:13.441Z,74.34
2023-04-16T12:55:42.057Z,74.68
2023-04-16T12:58:12.446Z,74.80
2023-04-16T13:00:41.132Z,74.95
2023-04-16T13:03:09.608Z,74.92
2023-04-16T13:05:38.101Z,75.04
2023-04-16T13:08:06.843Z,75.07
2023-04-16T13:10:35.993Z,75.44
2023-04-16T13:13:04.333Z,75.92
2023-04-16T13:15:32.762Z,76.18
2023-04-16T13:18:01.115Z,75.66
2023-04-16T13:20:33.455Z,75.23
2023-04-16T13:23:02.051Z,75.50
2023-04-16T13:25:31.352Z,75.29
2023-04-16T13:27:59.593Z,75.75
2023-04-16T13:30:29.728Z,74.94
2023-04-16T13:32:58.326Z,74.56
2023-04-16T13:35:27.425Z,74.18
2023-04-16T13:37:56.041Z,74.57
2023-04-16T13:40:24.446Z,74.64
2023-04-16T13:42:52.706Z,74.68
2023-04-16T13:45:21.040Z,74.88
2023-04-16T13:47:49.472Z,74.97
2023-04-16T13:50:17.840Z,74.99
2023-04-16T13:52:46.128Z,74.94
2023-04-16T13:55:14.575Z,74.95
2023-04-16T13:57:43.120Z,74.85
2023-04-16T14:00:13.372Z,75.02
2023-04-16T14:02:46.332Z,75.05
2023-04-16T14:05:15.716Z,74.97
2023-04-16T14:07:44.119Z,74.88
2023-04-16T14:10:12.651Z,74.88
2023-04-16T14:12:41.436Z,74.81
2023-04-16T14:15:10.514Z,74.63
2023-04-16T14:17:38.906Z,74.80
2023-04-16T14:20:07.737Z,74.71
2023-04-16T14:22:36.065Z,74.80
2023-04-16T14:25:04.707Z,74.97
2023-04-16T14:27:34.347Z,74.45
2023-04-16T14:30:02.664Z,74.36
2023-04-16T14:32:30.970Z,73.94
2023-04-16T14:34:59.285Z,73.76
2023-04-16T14:37:27.877Z,73.89
2023-04-16T14:39:56.678Z,74.07
2023-04-16T14:42:25.143Z,74.05
2023-04-16T14:44:53.554Z,73.87
2023-04-16T14:47:21.987Z,73.68
2023-04-16T14:49:50.412Z,73.98
2023-04-16T14:52:19.124Z,73.66
2023-04-16T14:54:48.204Z,73.98
2023-04-16T14:57:17.868Z,73.82
2023-04-16T14:59:46.144Z,72.84
2023-04-16T15:02:15.372Z,72.57
2023-04-16T15:04:43.854Z,72.87
2023-04-16T15:07:12.225Z,73.14
2023-04-16T15:09:40.591Z,72.84
2023-04-16T15:12:09.403Z,72.71
2023-04-16T15:14:37.788Z,72.45
2023-04-16T15:17:06.284Z,72.22
2023-04-16T15:19:34.594Z,71.75
2023-04-16T15:22:02.876Z,72.07
2023-04-16T15:24:31.241Z,72.30
2023-04-16T15:26:59.665Z,72.12
2023-04-16T15:29:28.464Z,71.97
2023-04-16T15:31:56.833Z,71.68
2023-04-16T15:34:26.734Z,72.08
2023-04-16T15:36:55.047Z,72.01
2023-04-16T15:39:23.365Z,71.88
2023-04-16T15:44:23.371Z,72.15
2023-04-16T15:46:51.640Z,72.25
2023-04-16T15:49:19.925Z,72.46
2023-04-16T15:51:48.367Z,72.47
2023-04-16T15:54:18.710Z,72.48
2023-04-16T15:56:47.392Z,72.62
2023-04-16T15:59:16.279Z,72.65
2023-04-16T16:01:44.513Z,72.67
2023-04-16T16:04:12.904Z,72.51
2023-04-16T16:06:41.953Z,72.45
2023-04-16T16:09:11.142Z,72.19
2023-04-16T16:11:39.961Z,72.27
2023-04-16T16:14:08.380Z,71.90
2023-04-16T16:16:36.861Z,71.93
2023-04-16T16:19:05.640Z,72.01
2023-04-16T16:21:33.976Z,72.25
2023-04-16T16:24:02.552Z,72.31
2023-04-16T16:26:30.956Z,72.31
2023-04-16T16:28:59.276Z,72.31
2023-04-16T16:31:27.626Z,72.50
2023-04-16T16:33:56.013Z,72.39
2023-04-16T16:36:24.589Z,72.32
2023-04-16T16:38:52.979Z,72.35
2023-04-16T16:41:21.207Z,72.31
2023-04-16T16:43:50.466Z,72.05
2023-04-16T16:46:18.771Z,72.12
2023-04-16T16:48:47.036Z,72.39
2023-04-16T16:51:19.009Z,72.28
2023-04-16T16:53:47.593Z,72.46
2023-04-16T16:56:16.146Z,72.51
2023-04-16T16:58:44.481Z,72.39
2023-04-16T17:01:12.809Z,72.50
2023-04-16T17:03:41.258Z,72.50
2023-04-16T17:06:10.251Z,72.60
2023-04-16T17:08:38.513Z,72.41
2023-04-16T17:11:06.729Z,72.47
2023-04-16T17:13:35.714Z,72.21
2023-04-16T17:16:04.224Z,72.43
2023-04-16T17:18:32.512Z,72.45
2023-04-16T17:21:01.049Z,72.38
2023-04-16T17:23:29.483Z,72.34
2023-04-16T17:25:59.720Z,72.51
2023-04-16T17:28:28.027Z,72.28
2023-04-16T17:30:57.176Z,71.78
2023-04-16T17:33:25.526Z,71.51
2023-04-16T17:35:53.844Z,71.24
2023-04-16T17:38:22.680Z,71.41
2023-04-16T17:40:50.986Z,71.20
2023-04-16T17:43:19.261Z,70.81
2023-04-16T17:45:47.467Z,71.00
2023-04-16T17:48:16.016Z,71.17
2023-04-16T17:50:44.363Z,71.13
2023-04-16T17:53:12.714Z,70.91
2023-04-16T17:55:42.856Z,71.23
2023-04-16T17:58:11.349Z,71.13
2023-04-16T18:00:40.191Z,71.24
2023-04-16T18:03:10.085Z,71.29
2023-04-16T18:05:38.523Z,71.23
2023-04-16T18:08:06.774Z,71.15
2023-04-16T18:10:35.057Z,71.29
2023-04-16T18:13:03.365Z,71.25
2023-04-16T18:15:31.688Z,71.52
2023-04-16T18:18:00.146Z,71.49
2023-04-16T18:20:28.574Z,71.51
2023-04-16T18:22:56.941Z,71.53
2023-04-16T18:25:33.567Z,71.31
2023-04-16T18:28:04.077Z,71.33
2023-04-16T18:30:32.741Z,71.37
2023-04-16T18:33:33.597Z,71.51
2023-04-16T18:35:50.033Z,71.41
2023-04-16T18:38:18.334Z,71.34
2023-04-16T18:40:47.178Z,71.30
2023-04-16T18:43:16.072Z,71.19
2023-04-16T18:45:44.332Z,70.91
2023-04-16T18:48:12.547Z,71.20
2023-04-16T18:50:41.207Z,71.07
2023-04-16T18:53:17.413Z,70.94
2023-04-16T18:55:45.882Z,70.83
2023-04-16T18:58:14.216Z,71.07
2023-04-16T19:00:42.648Z,70.80
2023-04-16T19:03:11.011Z,70.84
2023-04-16T19:05:39.411Z,71.00
2023-04-16T19:08:07.675Z,71.15
2023-04-16T19:10:36.183Z,71.37
2023-04-16T19:13:04.557Z,71.15
2023-04-16T19:15:34.404Z,70.99
2023-04-16T19:18:03.780Z,71.32
2023-04-16T19:20:38.421Z,71.08
2023-04-16T19:23:09.188Z,71.32
2023-04-16T19:25:37.641Z,71.16
2023-04-16T19:28:06.346Z,71.06
2023-04-16T19:30:34.871Z,71.09
2023-04-16T19:33:03.201Z,71.08
2023-04-16T19:35:37.805Z,71.09
2023-04-16T19:38:09.560Z,71.03
2023-04-16T19:41:05.950Z,71.19
2023-04-16T19:43:37.261Z,71.11
2023-04-16T19:46:08.303Z,71.10
2023-04-16T19:48:36.923Z,71.31
2023-04-16T19:51:05.758Z,71.38
2023-04-16T19:53:34.869Z,71.45
2023-04-16T19:56:05.955Z,71.61
2023-04-16T19:58:34.715Z,71.66
2023-04-16T20:01:09.020Z,71.64
2023-04-16T20:03:38.674Z,71.65
2023-04-16T20:06:08.066Z,71.42
2023-04-16T20:08:36.461Z,71.68
2023-04-16T20:11:04.833Z,71.60
2023-04-16T20:13:33.385Z,71.38
2023-04-16T20:16:01.792Z,71.56
2023-04-16T20:18:46.274Z,71.39
2023-04-16T20:21:14.896Z,71.14
2023-04-16T20:23:43.152Z,71.09
2023-04-16T20:26:15.942Z,71.10
2023-04-16T20:28:46.898Z,71.16
2023-04-16T20:31:15.426Z,71.13
2023-04-16T20:33:43.713Z,71.33
2023-04-16T20:36:12.211Z,71.75
2023-04-16T20:38:42.653Z,71.57
2023-04-16T20:41:12.239Z,71.52
2023-04-16T20:43:42.354Z,71.40
2023-04-16T20:46:11.953Z,71.13
2023-04-16T20:48:40.446Z,70.93
2023-04-16T20:51:12.394Z,71.08
2023-04-16T20:53:40.921Z,71.08
2023-04-16T20:56:09.359Z,71.36
2023-04-16T20:58:37.807Z,71.30
2023-04-16T21:01:06.405Z,71.50
2023-04-16T21:03:35.232Z,71.61
2023-04-16T21:06:04.060Z,71.68
2023-04-16T21:08:32.372Z,71.82
2023-04-16T21:11:00.765Z,71.78
2023-04-16T21:13:29.179Z,71.96
2023-04-16T21:15:57.484Z,71.89
2023-04-16T21:18:26.201Z,72.03
2023-04-16T21:20:54.497Z,72.07
2023-04-16T21:23:22.829Z,71.95
2023-04-16T21:25:51.337Z,72.16
2023-04-16T21:28:19.673Z,71.69
2023-04-16T21:30:52.244Z,71.78
2023-04-16T21:33:20.568Z,71.93
2023-04-16T21:35:53.702Z,71.98
2023-04-16T21:38:22.220Z,72.11
2023-04-16T21:40:54.046Z,71.84
2023-04-16T21:43:30.695Z,71.94
2023-04-16T21:45:59.770Z,72.22
2023-04-16T21:48:28.689Z,72.15
2023-04-16T21:51:06.884Z,72.25
2023-04-16T21:54:31.494Z,72.10
2023-04-16T21:57:12.657Z,72.19
2023-04-16T21:59:55.952Z,72.05
2023-04-16T22:02:34.526Z,72.31
2023-04-16T22:05:27.242Z,72.38
2023-04-16T22:08:24.056Z,72.58
2023-04-16T22:11:03.292Z,72.69
2023-04-16T22:13:52.921Z,72.38
2023-04-16T22:16:22.522Z,72.47
2023-04-16T22:18:51.444Z,72.62
2023-04-16T22:21:19.778Z,72.42
2023-04-16T22:23:48.279Z,72.57
2023-04-16T22:26:16.737Z,72.80
2023-04-16T22:28:48.096Z,72.91
2023-04-16T22:31:16.448Z,72.69
2023-04-16T22:33:44.780Z,72.75
2023-04-16T22:36:13.174Z,72.74
2023-04-16T22:38:41.634Z,72.64
2023-04-16T22:41:09.802Z,72.75
2023-04-16T22:43:38.193Z,72.86
2023-04-16T22:46:07.348Z,72.66
2023-04-16T22:48:38.332Z,72.81
2023-04-16T22:51:08.986Z,72.79
2023-04-16T22:53:37.249Z,72.91
2023-04-16T22:56:06.314Z,73.04
2023-04-16T22:58:34.730Z,72.97
2023-04-16T23:01:03.336Z,73.06
2023-04-16T23:03:32.150Z,73.30
2023-04-16T23:06:00.562Z,73.29
2023-04-16T23:08:28.749Z,73.23
2023-04-16T23:10:57.495Z,73.18
2023-04-16T23:13:25.876Z,73.37
2023-04-16T23:15:54.164Z,73.58
2023-04-16T23:18:22.421Z,73.47
2023-04-16T23:20:52.838Z,73.65
2023-04-16T23:23:21.260Z,73.49
2023-04-16T23:25:53.070Z,73.56
2023-04-16T23:28:22.157Z,73.56
2023-04-16T23:30:53.496Z,73.67
2023-04-16T23:33:22.207Z,73.96
2023-04-16T23:35:50.428Z,73.91
2023-04-16T23:38:18.743Z,73.99
2023-04-16T23:40:47.036Z,73.81
2023-04-16T23:43:15.575Z,73.89
2023-04-16T23:45:43.840Z,73.85
2023-04-16T23:48:12.290Z,74.00
2023-04-16T23:50:40.474Z,74.11
2023-04-16T23:53:08.701Z,74.29
2023-04-16T23:55:36.969Z,74.34
2023-04-16T23:58:05.443Z,74.30
